| time (UTC) | temp F | wind direction | speed MPH | gust MPH | rain 1hr in | rain 24hr in | rain mn in | humidity % | barometer mb |
| 20260503221556 | 70 | 302 | 1.0 | 5.0 | 0.00 | 0.00 | 0.00 | 58 | 1010.5 |
| 20260503221056 | 70 | 320 | 1.0 | 5.0 | 0.00 | 0.00 | 0.00 | 58 | 1010.5 |
| 20260503220552 | 70 | 300 | 0.0 | 6.0 | 0.00 | 0.00 | 0.00 | 59 | 1010.6 |
| 20260503220037 | 71 | 70 | 1.0 | 7.0 | 0.00 | 0.00 | 0.00 | 55 | 1010.6 |
| 20260503215534 | 71 | 290 | 0.0 | 6.0 | 0.00 | 0.00 | 0.00 | 56 | 1010.7 |
| 20260503215032 | 71 | 66 | 1.0 | 7.0 | 0.00 | 0.00 | 0.00 | 56 | 1010.7 |
| 20260503214530 | 71 | 255 | 1.0 | 7.0 | 0.00 | 0.00 | 0.00 | 54 | 1010.7 |
| 20260503214029 | 72 | 309 | 1.0 | 4.0 | 0.00 | 0.00 | 0.00 | 56 | 1010.8 |
| 20260503213528 | 73 | 298 | 1.0 | 5.0 | 0.00 | 0.00 | 0.00 | 54 | 1010.8 |
| 20260503213015 | 73 | 98 | 0.0 | 5.0 | 0.00 | 0.00 | 0.00 | 55 | 1010.8 |
| 20260503212508 | 73 | 84 | 0.0 | 4.0 | 0.00 | 0.00 | 0.00 | 53 | 1010.7 |
| 20260503212007 | 74 | 283 | 0.0 | 4.0 | 0.00 | 0.00 | 0.00 | 51 | 1010.8 |
| 20260503211506 | 74 | 50 | 0.0 | 3.0 | 0.00 | 0.00 | 0.00 | 55 | 1010.7 |
| 20260503211004 | 74 | 305 | 0.0 | 4.0 | 0.00 | 0.00 | 0.00 | 52 | 1010.7 |
| 20260503210503 | 74 | 109 | 1.0 | 10.0 | 0.00 | 0.00 | 0.00 | 52 | 1010.8 |
| 20260503205543 | 75 | 314 | 0.0 | 3.0 | 0.00 | 0.00 | 0.00 | 53 | 1010.9 |
| 20260503205044 | 75 | 43 | 0.0 | 5.0 | 0.00 | 0.00 | 0.00 | 52 | 1010.9 |
| 20260503204539 | 75 | 347 | 2.0 | 5.0 | 0.00 | 0.00 | 0.00 | 50 | 1011.0 |
| 20260503204039 | 75 | 209 | 0.0 | 3.0 | 0.00 | 0.00 | 0.00 | 51 | 1011.0 |
| 20260503203537 | 75 | 240 | 0.0 | 3.0 | 0.00 | 0.00 | 0.00 | 51 | 1011.1 |
| 20260503203039 | 75 | 37 | 0.0 | 5.0 | 0.00 | 0.00 | 0.00 | 53 | 1011.1 |
| 20260503202516 | 75 | 34 | 1.0 | 5.0 | 0.00 | 0.00 | 0.00 | 51 | 1011.2 |
| 20260503202015 | 75 | 255 | 0.0 | 3.0 | 0.00 | 0.00 | 0.00 | 52 | 1011.2 |
| 20260503201512 | 75 | 294 | 0.0 | 4.0 | 0.00 | 0.00 | 0.00 | 55 | 1011.3 |
| 20260503201011 | 74 | 343 | 0.0 | 4.0 | 0.00 | 0.00 | 0.00 | 53 | 1011.3 |
| 20260503200512 | 75 | 86 | 0.0 | 5.0 | 0.00 | 0.00 | 0.00 | 50 | 1011.4 |
| 20260503200009 | 75 | 315 | 0.0 | 5.0 | 0.00 | 0.00 | 0.00 | 53 | 1011.4 |
| 20260503195550 | 75 | 342 | 0.0 | 2.0 | 0.00 | 0.00 | 0.00 | 55 | 1011.4 |
| 20260503195048 | 74 | 292 | 0.0 | 3.0 | 0.00 | 0.00 | 0.00 | 55 | 1011.5 |
| 20260503194549 | 75 | 212 | 0.0 | 3.0 | 0.00 | 0.00 | 0.00 | 53 | 1011.5 |
| 20260503194045 | 75 | 242 | 0.0 | 1.0 | 0.00 | 0.00 | 0.00 | 56 | 1011.5 |
| 20260503193544 | 75 | 266 | 0.0 | 2.0 | 0.00 | 0.00 | 0.00 | 55 | 1011.5 |
| 20260503193043 | 74 | 277 | 0.0 | 4.0 | 0.00 | 0.00 | 0.00 | 57 | 1011.6 |
| 20260503192522 | 74 | 219 | 1.0 | 4.0 | 0.00 | 0.00 | 0.00 | 55 | 1011.6 |
| 20260503192022 | 74 | 240 | 1.0 | 3.0 | 0.00 | 0.00 | 0.00 | 54 | 1011.7 |
| 20260503191520 | 74 | 231 | 0.0 | 4.0 | 0.00 | 0.00 | 0.00 | 55 | 1011.7 |
| 20260503191023 | 75 | 239 | 1.0 | 4.0 | 0.00 | 0.00 | 0.00 | 54 | 1011.8 |
| 20260503190520 | 75 | 230 | 0.0 | 1.0 | 0.00 | 0.00 | 0.00 | 53 | 1011.8 |
| 20260503190025 | 75 | 293 | 0.0 | 2.0 | 0.00 | 0.00 | 0.00 | 55 | 1011.8 |
| 20260503185558 | 75 | 263 | 0.0 | 2.0 | 0.00 | 0.00 | 0.00 | 52 | 1011.8 |
| 20260503185056 | 75 | 218 | 0.0 | 3.0 | 0.00 | 0.00 | 0.00 | 55 | 1011.8 |
| 20260503184606 | 75 | 229 | 0.0 | 3.0 | 0.00 | 0.00 | 0.00 | 54 | 1011.9 |
| 20260503184053 | 75 | 264 | 0.0 | 3.0 | 0.00 | 0.00 | 0.00 | 54 | 1011.9 |
| 20260503183551 | 76 | 211 | 0.0 | 0.0 | 0.00 | 0.00 | 0.00 | 53 | 1011.9 |
| 20260503183050 | 77 | 274 | 0.0 | 0.0 | 0.00 | 0.00 | 0.00 | 52 | 1012.0 |
| 20260503182541 | 78 | 309 | 0.0 | 0.0 | 0.00 | 0.00 | 0.00 | 54 | 1012.0 |
| 20260503182033 | 77 | 219 | 0.0 | 0.0 | 0.00 | 0.00 | 0.00 | 53 | 1011.9 |
| 20260503181528 | 77 | 188 | 0.0 | 0.0 | 0.00 | 0.00 | 0.00 | 49 | 1011.9 |
| 20260503181027 | 77 | 232 | 0.0 | 1.0 | 0.00 | 0.00 | 0.00 | 54 | 1012.0 |
| 20260503180526 | 77 | 273 | 0.0 | 2.0 | 0.00 | 0.00 | 0.00 | 53 | 1012.0 |
| 20260503180024 | 77 | 200 | 0.0 | 2.0 | 0.00 | 0.00 | 0.00 | 51 | 1012.1 |
| 20260503175506 | 77 | 257 | 0.0 | 0.0 | 0.00 | 0.00 | 0.00 | 52 | 1012.1 |
| 20260503175004 | 76 | 209 | 0.0 | 0.0 | 0.00 | 0.00 | 0.00 | 52 | 1012.1 |
| 20260503174502 | 76 | 214 | 0.0 | 0.0 | 0.00 | 0.00 | 0.00 | 51 | 1012.1 |
| 20260503174002 | 75 | 188 | 0.0 | 1.0 | 0.00 | 0.00 | 0.00 | 52 | 1012.1 |
| 20260503173600 | 75 | 50 | 0.0 | 2.0 | 0.00 | 0.00 | 0.00 | 51 | 1012.2 |
| 20260503173106 | 74 | 102 | 0.0 | 3.0 | 0.00 | 0.00 | 0.00 | 52 | 1012.2 |
| 20260503172540 | 73 | 70 | 0.0 | 2.0 | 0.00 | 0.00 | 0.00 | 54 | 1012.3 |
| 20260503172037 | 72 | 58 | 0.0 | 2.0 | 0.00 | 0.00 | 0.00 | 53 | 1012.3 |
| 20260503171536 | 72 | 68 | 0.0 | 0.0 | 0.00 | 0.00 | 0.00 | 53 | 1012.3 |
| 20260503171035 | 72 | 51 | 0.0 | 0.0 | 0.00 | 0.00 | 0.00 | 54 | 1012.3 |
| 20260503170534 | 71 | 32 | 0.0 | 2.0 | 0.00 | 0.00 | 0.00 | 54 | 1012.2 |
| 20260503150549 | 0 | 0.0 | 0.0 | 0.00 | 0.00 | 0.00 | 1012.7 | ||
| 20260503131013 | 0 | 0.0 | 0.0 | 0.00 | 0.00 | 0.00 | 1012.4 | ||
| 20260503130512 | 0 | 0.0 | 0.0 | 0.00 | 0.00 | 0.00 | 1012.5 | ||
| 20260503110554 | 0 | 0.0 | 0.0 | 0.00 | 0.00 | 0.00 | 1012.8 | ||
| 20260503100132 | 0 | 0.0 | 0.0 | 0.00 | 0.00 | 0.00 | 1012.9 | ||
| 20260503090510 | 0 | 0.0 | 0.0 | 0.00 | 0.00 | 0.00 | 1013.1 | ||
| 20260503081549 | 0 | 0.0 | 0.0 | 0.00 | 0.00 | 0.00 | 1013.2 | ||
| 20260503081046 | 0 | 0.0 | 0.0 | 0.00 | 0.00 | 0.00 | 1013.2 | ||
| 20260503072514 | 0 | 0.0 | 0.0 | 0.00 | 0.00 | 0.00 | 1013.3 | ||
| 20260503072011 | 0 | 0.0 | 0.0 | 0.00 | 0.00 | 0.00 | 1013.2 | ||
| 20260503071524 | 0 | 0.0 | 0.0 | 0.00 | 0.00 | 0.00 | 1013.2 | ||
| 20260503071108 | 0 | 0.0 | 0.0 | 0.00 | 0.00 | 0.00 | 1013.3 | ||
| 20260503070524 | 0 | 0.0 | 0.0 | 0.00 | 0.00 | 0.00 | 1013.2 | ||
| 20260503055029 | 49 | 65 | 0.0 | 0.0 | 0.00 | 0.00 | 0.00 | 1 | 1013.4 |
| 20260503054525 | 49 | 65 | 0.0 | 0.0 | 0.00 | 0.00 | 0.00 | 1 | 1013.4 |
| 20260503054013 | 49 | 65 | 0.0 | 0.0 | 0.00 | 0.00 | 0.00 | 1 | 1013.5 |
| 20260503053508 | 49 | 65 | 0.0 | 0.0 | 0.00 | 0.00 | 0.00 | 1 | 1013.5 |
| 20260503053006 | 49 | 65 | 0.0 | 0.0 | 0.00 | 0.00 | 0.00 | 1 | 1013.5 |
| 20260503052504 | 49 | 65 | 0.0 | 0.0 | 0.00 | 0.00 | 0.00 | 1 | 1013.4 |
| 20260503052004 | 49 | 65 | 0.0 | 0.0 | 0.00 | 0.00 | 0.00 | 1 | 1013.4 |
| 20260503051543 | 49 | 65 | 0.0 | 0.0 | 0.00 | 0.00 | 0.00 | 1 | 1013.4 |
| 20260503051043 | 49 | 65 | 0.0 | 0.0 | 0.00 | 0.00 | 0.00 | 1 | 1013.4 |
| 20260503050541 | 50 | 65 | 0.0 | 0.0 | 0.00 | 0.00 | 0.00 | 1 | 1013.3 |
| 20260503050039 | 50 | 65 | 0.0 | 0.0 | 0.00 | 0.00 | 0.00 | 1 | 1013.4 |
| 20260503045538 | 50 | 65 | 0.0 | 0.0 | 0.00 | 0.00 | 0.00 | 1 | 1013.3 |
| 20260503045137 | 50 | 65 | 0.0 | 0.0 | 0.00 | 0.00 | 0.00 | 1 | 1013.3 |
| 20260503044522 | 50 | 65 | 0.0 | 0.0 | 0.00 | 0.00 | 0.00 | 1 | 1013.2 |
| 20260503044021 | 50 | 65 | 0.0 | 0.0 | 0.00 | 0.00 | 0.00 | 1 | 1013.2 |
| 20260503043520 | 50 | 65 | 0.0 | 0.0 | 0.00 | 0.00 | 0.00 | 1 | 1013.1 |
| 20260503043018 | 50 | 65 | 0.0 | 1.0 | 0.00 | 0.00 | 0.00 | 1 | 1013.1 |
| 20260503042516 | 51 | 72 | 0.0 | 1.0 | 0.00 | 0.00 | 0.00 | 1 | 1013.0 |
| 20260503042015 | 51 | 25 | 0.0 | 0.0 | 0.00 | 0.00 | 0.00 | 1 | 1013.0 |
| 20260503041514 | 51 | 39 | 0.0 | 0.0 | 0.00 | 0.00 | 0.00 | 1 | 1013.0 |
| 20260503041012 | 51 | 331 | 0.0 | 1.0 | 0.00 | 0.00 | 0.00 | 1 | 1012.9 |
| 20260503040516 | 51 | 332 | 0.0 | 2.0 | 0.00 | 0.00 | 0.00 | 1 | 1012.9 |
| 20260503040011 | 51 | 18 | 0.0 | 1.0 | 0.00 | 0.00 | 0.00 | 1 | 1012.9 |
| 20260503035512 | 51 | 48 | 0.0 | 2.0 | 0.00 | 0.00 | 0.00 | 1 | 1012.9 |
| 20260503035014 | 51 | 329 | 0.0 | 2.0 | 0.00 | 0.00 | 0.00 | 1 | 1012.8 |
| 20260503034510 | 51 | 342 | 0.0 | 2.0 | 0.00 | 0.00 | 0.00 | 1 | 1012.7 |
| 20260503034008 | 51 | 358 | 0.0 | 2.0 | 0.00 | 0.00 | 0.00 | 1 | 1012.7 |
| 20260503033506 | 51 | 290 | 0.0 | 1.0 | 0.00 | 0.00 | 0.00 | 1 | 1012.7 |
| 20260503033009 | 51 | 309 | 0.0 | 1.0 | 0.00 | 0.00 | 0.00 | 1 | 1012.6 |
| 20260503032503 | 51 | 308 | 0.0 | 1.0 | 0.00 | 0.00 | 0.00 | 1 | 1012.6 |
| 20260503032002 | 51 | 259 | 0.0 | 4.0 | 0.00 | 0.00 | 0.00 | 1 | 1012.6 |
| 20260503031601 | 51 | 314 | 0.0 | 4.0 | 0.00 | 0.00 | 0.00 | 1 | 1012.6 |
| 20260503031059 | 51 | 27 | 0.0 | 1.0 | 0.00 | 0.00 | 0.00 | 1 | 1012.6 |
| 20260503030558 | 52 | 297 | 0.0 | 1.0 | 0.00 | 0.00 | 0.00 | 1 | 1012.6 |
| 20260503030056 | 52 | 74 | 0.0 | 1.0 | 0.00 | 0.00 | 0.00 | 1 | 1012.6 |
| 20260503025555 | 52 | 346 | 0.0 | 1.0 | 0.00 | 0.00 | 0.00 | 1 | 1012.5 |
| 20260503025053 | 52 | 100 | 0.0 | 2.0 | 0.00 | 0.00 | 0.00 | 1 | 1012.5 |
| 20260503024553 | 52 | 141 | 0.0 | 2.0 | 0.00 | 0.00 | 0.00 | 1 | 1012.5 |
| 20260503024033 | 52 | 278 | 0.0 | 2.0 | 0.00 | 0.00 | 0.00 | 1 | 1012.5 |
| 20260503023531 | 52 | 94 | 0.0 | 2.0 | 0.00 | 0.00 | 0.00 | 1 | 1012.5 |
| 20260503023032 | 52 | 359 | 0.0 | 2.0 | 0.00 | 0.00 | 0.00 | 1 | 1012.5 |
| 20260503022528 | 52 | 287 | 0.0 | 4.0 | 0.00 | 0.00 | 0.00 | 1 | 1012.3 |
| 20260503022027 | 52 | 23 | 0.0 | 4.0 | 0.00 | 0.00 | 0.00 | 1 | 1012.3 |
| 20260503021526 | 52 | 305 | 0.0 | 3.0 | 0.00 | 0.00 | 0.00 | 1 | 1012.3 |
| 20260503021007 | 53 | 278 | 0.0 | 6.0 | 0.00 | 0.00 | 0.00 | 1 | 1012.2 |
| 20260503020506 | 53 | 280 | 1.0 | 6.0 | 0.00 | 0.00 | 0.00 | 1 | 1012.2 |
| 20260503020004 | 53 | 266 | 0.0 | 2.0 | 0.00 | 0.00 | 0.00 | 1 | 1012.2 |
| 20260503015503 | 53 | 271 | 0.0 | 2.0 | 0.00 | 0.00 | 0.00 | 1 | 1012.3 |
| 20260503015001 | 53 | 38 | 0.0 | 5.0 | 0.00 | 0.00 | 0.00 | 1 | 1012.3 |
| 20260503014620 | 52 | 285 | 0.0 | 5.0 | 0.00 | 0.00 | 0.00 | 1 | 1012.4 |
| 20260503014042 | 53 | 300 | 0.0 | 4.0 | 0.00 | 0.00 | 0.00 | 1 | 1012.4 |
| 20260503013540 | 53 | 309 | 1.0 | 5.0 | 0.00 | 0.00 | 0.00 | 1 | 1012.4 |
| 20260503013038 | 53 | 295 | 0.0 | 5.0 | 0.00 | 0.00 | 0.00 | 1 | 1012.5 |
| 20260503012538 | 53 | 307 | 0.0 | 4.0 | 0.00 | 0.00 | 0.00 | 1 | 1012.6 |
| 20260503012038 | 53 | 259 | 0.0 | 4.0 | 0.00 | 0.00 | 0.00 | 1 | 1012.7 |
| 20260503011533 | 53 | 283 | 0.0 | 5.0 | 0.00 | 0.00 | 0.00 | 1 | 1012.7 |
| 20260503011015 | 53 | 352 | 0.0 | 3.0 | 0.00 | 0.00 | 0.00 | 1 | 1012.8 |
| 20260503010513 | 53 | 56 | 0.0 | 3.0 | 0.00 | 0.00 | 0.00 | 1 | 1012.8 |
| 20260503010012 | 53 | 290 | 0.0 | 4.0 | 0.00 | 0.00 | 0.00 | 1 | 1012.9 |
| 20260503005511 | 54 | 304 | 0.0 | 9.0 | 0.00 | 0.00 | 0.00 | 1 | 1012.8 |
| 20260503005012 | 54 | 338 | 2.0 | 9.0 | 0.00 | 0.00 | 0.00 | 1 | 1012.9 |
| 20260503004507 | 54 | 347 | 0.0 | 5.0 | 0.00 | 0.00 | 0.00 | 1 | 1012.9 |
| 20260503004051 | 54 | 314 | 0.0 | 4.0 | 0.00 | 0.00 | 0.00 | 1 | 1012.9 |
| 20260503003548 | 54 | 15 | 0.0 | 5.0 | 0.00 | 0.00 | 0.00 | 1 | 1013.0 |
| 20260503003055 | 54 | 321 | 1.0 | 4.0 | 0.00 | 0.00 | 0.00 | 1 | 1013.0 |
| 20260503002546 | 54 | 29 | 0.0 | 3.0 | 0.00 | 0.00 | 0.00 | 1 | 1013.0 |
| 20260503002045 | 54 | 6 | 0.0 | 3.0 | 0.00 | 0.00 | 0.00 | 1 | 1012.9 |
| 20260503001603 | 54 | 305 | 0.0 | 4.0 | 0.00 | 0.00 | 0.00 | 1 | 1012.9 |
| 20260503001041 | 54 | 4 | 0.0 | 4.0 | 0.00 | 0.00 | 0.00 | 1 | 1013.0 |
| 20260503000540 | 54 | 231 | 0.0 | 3.0 | 0.00 | 0.00 | 0.00 | 1 | 1013.0 |
| 20260503000045 | 55 | 304 | 0.0 | 5.0 | 0.00 | 0.00 | 0.00 | 1 | 1013.1 |
| 20260502235537 | 55 | 34 | 1.0 | 6.0 | 0.00 | 0.00 | 0.00 | 1 | 1013.2 |
| 20260502235036 | 56 | 8 | 1.0 | 6.0 | 0.00 | 0.00 | 0.00 | 1 | 1013.2 |
| 20260502234538 | 56 | 328 | 1.0 | 5.0 | 0.00 | 0.00 | 0.00 | 1 | 1013.2 |
| 20260502234033 | 56 | 302 | 0.0 | 5.0 | 0.00 | 0.00 | 0.00 | 1 | 1013.3 |
| 20260502233531 | 56 | 253 | 0.0 | 5.0 | 0.00 | 0.00 | 0.00 | 1 | 1013.4 |
| 20260502233032 | 57 | 348 | 2.0 | 4.0 | 0.00 | 0.00 | 0.00 | 1 | 1013.5 |
| 20260502232528 | 57 | 62 | 0.0 | 6.0 | 0.00 | 0.00 | 0.00 | 1 | 1013.4 |
| 20260502232027 | 57 | 240 | 0.0 | 6.0 | 0.00 | 0.00 | 0.00 | 1 | 1013.6 |
| 20260502231026 | 58 | 340 | 0.0 | 4.0 | 0.00 | 0.00 | 0.00 | 1 | 1013.7 |
| 20260502230524 | 58 | 238 | 0.0 | 8.0 | 0.00 | 0.00 | 0.00 | 1 | 1013.8 |
| 20260502230031 | 58 | 273 | 0.0 | 4.0 | 0.00 | 0.00 | 0.00 | 1 | 1013.9 |
| 20260502225520 | 60 | 183 | 0.0 | 5.0 | 0.00 | 0.00 | 0.00 | 1 | 1014.0 |
| 20260502225023 | 60 | 26 | 1.0 | 5.0 | 0.00 | 0.00 | 0.00 | 1 | 1014.0 |
| 20260502224519 | 60 | 281 | 0.0 | 3.0 | 0.00 | 0.00 | 0.00 | 1 | 1014.1 |
| 20260502224023 | 60 | 259 | 0.0 | 4.0 | 0.00 | 0.00 | 0.00 | 1 | 1014.2 |
| 20260502223518 | 60 | 260 | 0.0 | 4.0 | 0.00 | 0.00 | 0.00 | 1 | 1014.4 |
| 20260502223017 | 60 | 356 | 0.0 | 4.0 | 0.00 | 0.00 | 0.00 | 1 | 1014.4 |
| 20260502222513 | 61 | 69 | 1.0 | 7.0 | 0.00 | 0.00 | 0.00 | 1 | 1014.5 |
| 20260502222012 | 61 | 257 | 1.0 | 7.0 | 0.00 | 0.00 | 0.00 | 1 | 1014.6 |